Time;durP1;ratioP1;P1;durP2;ratioP2;P2;SDS_P1;SDS_P2;PMS_P1;PMS_P2;Temp;Humidity;BMP_temperature;BMP_pressure;BME280_temperature;BME280_humidity;BME280_pressure;Samples;Min_cycle;Max_cycle;Signal;HPM_P1;HPM_P2
2024/01/12 00:00:45;;;;;;;104.38;67.63;;;2.50;99.90;;;;;;5093105;28;20030;-60
2024/01/12 00:03:11;;;;;;;91.10;61.35;;;2.50;99.90;;;;;;5091374;28;20020;-60
2024/01/12 00:05:37;;;;;;;97.20;64.05;;;2.40;99.90;;;;;;5092219;28;20024;-60
2024/01/12 00:08:02;;;;;;;93.60;62.15;;;2.70;99.90;;;;;;5092011;28;20024;-60
2024/01/12 00:10:28;;;;;;;86.57;57.30;;;2.80;99.90;;;;;;5092927;28;20028;-60
2024/01/12 00:12:54;;;;;;;85.18;56.22;;;3.00;99.90;;;;;;5092585;28;20032;-60
2024/01/12 00:15:19;;;;;;;76.97;53.75;;;3.10;99.90;;;;;;5092483;28;20103;-60
2024/01/12 00:17:45;;;;;;;75.82;50.75;;;3.10;99.90;;;;;;5092637;28;20032;-59
2024/01/12 00:20:11;;;;;;;73.60;50.35;;;3.30;99.90;;;;;;5092374;28;20162;-60
2024/01/12 00:22:37;;;;;;;69.30;47.85;;;3.20;99.90;;;;;;5092143;28;20032;-60
2024/01/12 00:25:02;;;;;;;69.72;47.92;;;3.10;99.90;;;;;;5092545;28;20051;-60
2024/01/12 00:27:28;;;;;;;71.55;48.85;;;2.90;99.90;;;;;;5092651;28;20106;-60
2024/01/12 00:29:54;;;;;;;77.45;50.70;;;2.80;99.90;;;;;;5092405;28;20028;-60
2024/01/12 00:32:19;;;;;;;78.25;51.67;;;2.50;99.90;;;;;;5092105;28;20015;-60
2024/01/12 00:34:45;;;;;;;80.22;53.83;;;2.50;99.90;;;;;;5092245;28;20032;-60
2024/01/12 00:37:11;;;;;;;80.95;54.60;;;2.40;99.90;;;;;;5092277;28;20034;-60
2024/01/12 00:39:37;;;;;;;88.55;58.95;;;2.30;99.90;;;;;;5092094;28;20103;-60
2024/01/12 00:42:03;;;;;;;96.70;65.03;;;2.20;99.90;;;;;;5092083;28;20067;-60
2024/01/12 00:44:29;;;;;;;100.35;66.10;;;2.20;99.90;;;;;;5092589;28;20019;-60
2024/01/12 00:46:55;;;;;;;112.63;71.97;;;2.10;99.90;;;;;;5091799;28;20095;-60
2024/01/12 00:49:22;;;;;;;111.47;72.07;;;2.10;99.90;;;;;;5091838;28;20048;-60
2024/01/12 00:51:48;;;;;;;122.22;78.50;;;2.20;99.90;;;;;;5091663;28;20077;-60
2024/01/12 00:54:14;;;;;;;125.32;81.90;;;2.10;99.90;;;;;;5092118;28;20024;-60
2024/01/12 00:56:40;;;;;;;138.90;85.60;;;2.00;99.90;;;;;;5090757;28;20532;-60
2024/01/12 00:59:06;;;;;;;152.63;89.68;;;1.90;99.90;;;;;;5092086;28;20035;-60
2024/01/12 01:01:33;;;;;;;153.35;92.97;;;1.90;99.90;;;;;;5091839;28;20031;-60
2024/01/12 01:04:00;;;;;;;154.50;92.47;;;1.90;99.90;;;;;;5091939;28;20028;-60
2024/01/12 01:06:26;;;;;;;153.27;92.15;;;1.80;99.90;;;;;;5091697;28;20517;-59
2024/01/12 01:08:52;;;;;;;149.82;92.38;;;1.80;99.90;;;;;;5092207;28;20370;-60
2024/01/12 01:11:17;;;;;;;153.00;92.72;;;1.80;99.90;;;;;;5091871;28;20056;-60
2024/01/12 01:13:43;;;;;;;156.90;95.07;;;1.70;99.90;;;;;;5091813;28;20021;-60
2024/01/12 01:16:09;;;;;;;169.10;102.97;;;1.70;99.90;;;;;;5091733;28;20035;-60
2024/01/12 01:18:36;;;;;;;161.45;98.20;;;1.70;99.90;;;;;;5094644;28;20028;-60
2024/01/12 01:21:01;;;;;;;152.68;92.70;;;1.70;99.90;;;;;;5095857;28;20028;-60
2024/01/12 01:23:27;;;;;;;147.60;88.93;;;1.70;99.90;;;;;;5095786;28;20458;-60
2024/01/12 01:25:56;;;;;;;154.68;91.18;;;1.70;99.90;;;;;;5095677;28;20016;-60
2024/01/12 01:28:22;;;;;;;144.65;88.22;;;1.70;99.90;;;;;;5094376;28;20028;-60
2024/01/12 01:30:48;;;;;;;142.95;88.40;;;1.70;99.90;;;;;;5095527;28;20024;-60
2024/01/12 01:33:13;;;;;;;135.45;82.63;;;1.60;99.90;;;;;;5095580;28;20032;-59
2024/01/12 01:35:39;;;;;;;131.10;80.03;;;1.70;99.90;;;;;;5095594;28;20028;-60
2024/01/12 01:38:05;;;;;;;126.82;78.53;;;1.60;99.90;;;;;;5095321;28;20038;-60
2024/01/12 01:40:31;;;;;;;127.95;79.90;;;1.60;99.90;;;;;;5095439;28;20035;-60
2024/01/12 01:42:56;;;;;;;124.63;74.82;;;1.60;99.90;;;;;;5095500;28;20466;-60
2024/01/12 01:45:22;;;;;;;111.00;71.40;;;1.50;99.90;;;;;;5095324;28;20040;-60
2024/01/12 01:47:48;;;;;;;116.53;73.82;;;1.50;99.90;;;;;;5095495;28;20042;-59
2024/01/12 01:50:15;;;;;;;128.02;82.78;;;1.50;99.90;;;;;;5094779;28;20024;-59
2024/01/12 01:52:43;;;;;;;123.60;80.60;;;1.50;99.90;;;;;;5095310;28;20032;-60
2024/01/12 01:55:11;;;;;;;119.72;75.95;;;1.40;99.90;;;;;;5095654;28;20077;-60
2024/01/12 01:57:39;;;;;;;108.60;69.65;;;1.40;99.90;;;;;;5095119;28;20032;-59
2024/01/12 02:00:05;;;;;;;98.38;65.90;;;1.40;99.90;;;;;;5094911;28;20478;-60
2024/01/12 02:02:31;;;;;;;94.88;63.90;;;1.50;99.90;;;;;;5095041;28;20108;-60
2024/01/12 02:04:59;;;;;;;92.80;55.90;;;1.50;99.90;;;;;;5094911;28;20099;-60
2024/01/12 02:07:25;;;;;;;92.50;52.17;;;1.70;99.90;;;;;;5095014;28;20055;-60
2024/01/12 02:09:51;;;;;;;123.32;65.25;;;1.70;99.90;;;;;;5094942;28;20070;-60
2024/01/12 02:12:17;;;;;;;124.57;66.78;;;1.60;99.90;;;;;;5095060;28;20028;-60
2024/01/12 02:14:42;;;;;;;99.00;59.15;;;1.60;99.90;;;;;;5094764;28;20051;-61
2024/01/12 02:17:08;;;;;;;95.97;59.55;;;1.60;99.90;;;;;;5094754;28;20504;-60
2024/01/12 02:19:34;;;;;;;92.20;52.25;;;1.50;99.90;;;;;;5094342;28;20516;-60
2024/01/12 02:21:59;;;;;;;105.05;54.85;;;1.60;99.90;;;;;;5094640;28;20442;-60
2024/01/12 02:24:25;;;;;;;84.20;51.72;;;1.50;99.90;;;;;;5093757;28;20069;-60
2024/01/12 02:26:51;;;;;;;96.43;52.63;;;1.50;99.90;;;;;;5094411;28;20024;-60
2024/01/12 02:29:17;;;;;;;84.25;48.80;;;1.50;99.90;;;;;;5093734;28;20050;-60
2024/01/12 02:31:43;;;;;;;100.75;46.42;;;1.60;99.90;;;;;;5094449;28;20031;-60
2024/01/12 02:34:10;;;;;;;79.97;45.58;;;1.90;99.90;;;;;;5094145;28;20020;-60
2024/01/12 02:36:35;;;;;;;63.53;41.42;;;2.00;99.90;;;;;;5094255;28;20081;-60
2024/01/12 02:39:01;;;;;;;62.17;39.88;;;2.10;99.90;;;;;;5094211;28;20020;-60
2024/01/12 02:41:26;;;;;;;55.75;37.35;;;2.20;99.90;;;;;;5094150;28;20024;-59
2024/01/12 02:43:52;;;;;;;53.60;36.50;;;2.30;99.90;;;;;;5093027;28;20403;-59
2024/01/12 02:46:18;;;;;;;51.03;34.20;;;2.50;99.90;;;;;;5093762;28;20052;-60
2024/01/12 02:48:43;;;;;;;50.35;34.13;;;2.40;99.90;;;;;;5094084;28;20024;-59
2024/01/12 02:51:09;;;;;;;45.70;32.25;;;2.30;99.90;;;;;;5094135;28;20020;-60
2024/01/12 02:53:35;;;;;;;42.50;31.52;;;2.30;99.90;;;;;;5094069;28;20394;-60
2024/01/12 02:56:00;;;;;;;46.30;33.40;;;2.20;99.90;;;;;;5093989;28;20080;-60
2024/01/12 02:58:26;;;;;;;43.03;32.45;;;2.10;99.90;;;;;;5094342;28;20474;-59
2024/01/12 03:00:52;;;;;;;38.30;29.35;;;2.20;99.90;;;;;;5093766;28;20590;-60
2024/01/12 03:03:19;;;;;;;39.47;28.65;;;2.30;99.90;;;;;;5093356;28;20130;-60
2024/01/12 03:05:45;;;;;;;40.10;28.48;;;2.10;99.90;;;;;;5093804;28;20492;-60
2024/01/12 03:08:11;;;;;;;40.30;28.60;;;2.10;99.90;;;;;;5093715;28;20016;-60
2024/01/12 03:10:37;;;;;;;39.58;28.55;;;2.20;99.90;;;;;;5092798;28;20390;-60
2024/01/12 03:13:03;;;;;;;40.50;29.58;;;2.30;99.90;;;;;;5093566;28;20020;-60
2024/01/12 03:15:29;;;;;;;38.83;29.38;;;2.20;99.90;;;;;;5093419;28;20024;-59
2024/01/12 03:17:56;;;;;;;43.20;29.65;;;2.20;99.90;;;;;;5093169;28;20051;-59
2024/01/12 03:20:22;;;;;;;42.20;31.63;;;2.30;99.90;;;;;;5093474;28;20074;-60
2024/01/12 03:22:47;;;;;;;40.25;30.40;;;2.30;99.90;;;;;;5093785;28;20107;-59
2024/01/12 03:25:13;;;;;;;39.50;29.85;;;2.30;99.90;;;;;;5093532;28;20023;-60
2024/01/12 03:27:39;;;;;;;40.53;28.70;;;2.30;99.90;;;;;;5093236;28;20517;-60
2024/01/12 03:30:05;;;;;;;36.20;27.38;;;2.20;99.90;;;;;;5093618;28;20517;-60
2024/01/12 03:32:33;;;;;;;40.42;28.88;;;2.30;99.90;;;;;;5093094;28;20492;-60
2024/01/12 03:34:59;;;;;;;40.75;30.50;;;2.30;99.90;;;;;;5093241;28;20492;-60
2024/01/12 03:37:24;;;;;;;43.63;29.92;;;2.30;99.90;;;;;;5093167;28;20038;-59
2024/01/12 03:39:50;;;;;;;38.10;28.40;;;2.30;99.90;;;;;;5093576;28;20480;-60
2024/01/12 03:42:16;;;;;;;40.00;28.80;;;2.40;99.90;;;;;;5091841;28;20035;-60
2024/01/12 03:44:41;;;;;;;38.67;28.88;;;2.40;99.90;;;;;;5093302;28;20055;-59
2024/01/12 03:47:07;;;;;;;39.15;29.10;;;2.30;99.90;;;;;;5092483;28;20051;-60
2024/01/12 03:49:33;;;;;;;38.30;28.80;;;2.30;99.90;;;;;;5093402;28;20028;-60
2024/01/12 03:51:59;;;;;;;39.03;29.08;;;2.30;99.90;;;;;;5092759;28;20039;-60
2024/01/12 03:54:24;;;;;;;40.90;29.05;;;2.30;99.90;;;;;;5092936;28;20477;-60
2024/01/12 03:56:50;;;;;;;38.65;28.95;;;2.30;99.90;;;;;;5093061;28;20519;-60
2024/01/12 03:59:16;;;;;;;39.40;29.45;;;2.40;99.90;;;;;;5092871;28;20028;-60
2024/01/12 04:01:45;;;;;;;37.95;29.08;;;2.40;99.90;;;;;;5092397;28;20021;-60
2024/01/12 04:04:12;;;;;;;37.65;28.48;;;2.40;99.90;;;;;;5092652;28;20020;-60
2024/01/12 04:06:39;;;;;;;39.97;29.40;;;2.30;99.90;;;;;;5092747;28;20056;-60
2024/01/12 04:09:04;;;;;;;41.05;29.75;;;2.30;99.90;;;;;;5093005;28;20444;-60
2024/01/12 04:11:30;;;;;;;41.03;30.90;;;2.30;99.90;;;;;;5092463;28;20027;-59
2024/01/12 04:13:56;;;;;;;44.17;30.98;;;2.20;99.90;;;;;;5092661;28;20450;-60
2024/01/12 04:16:21;;;;;;;41.78;31.08;;;2.20;99.90;;;;;;5092025;28;20031;-59
2024/01/12 04:18:47;;;;;;;43.90;31.10;;;2.20;99.90;;;;;;5092455;28;20452;-60
2024/01/12 04:21:13;;;;;;;40.60;30.30;;;2.20;99.90;;;;;;5092321;28;20032;-60
2024/01/12 04:23:39;;;;;;;44.85;33.03;;;2.20;99.90;;;;;;5092413;28;20016;-59
2024/01/12 04:26:08;;;;;;;45.97;33.95;;;2.20;99.90;;;;;;5092221;28;20453;-60
2024/01/12 04:28:34;;;;;;;44.90;33.17;;;2.20;99.90;;;;;;5092374;28;20085;-60
2024/01/12 04:31:03;;;;;;;45.78;32.30;;;2.20;99.90;;;;;;5092134;28;20032;-60
2024/01/12 04:33:30;;;;;;;43.10;32.22;;;2.20;99.90;;;;;;5092142;28;20035;-60
2024/01/12 04:35:56;;;;;;;49.65;35.08;;;2.20;99.90;;;;;;5092260;28;20024;-59
2024/01/12 04:38:23;;;;;;;50.10;36.53;;;2.20;99.90;;;;;;5092159;28;20016;-60
2024/01/12 04:40:48;;;;;;;45.67;33.85;;;2.20;99.90;;;;;;5091890;28;20091;-60
2024/01/12 04:43:14;;;;;;;47.30;36.33;;;2.20;99.90;;;;;;5092087;28;20627;-59
2024/01/12 04:45:40;;;;;;;53.15;37.53;;;2.20;99.90;;;;;;5092093;28;20430;-60
2024/01/12 04:48:05;;;;;;;48.80;34.17;;;2.20;99.90;;;;;;5092068;28;20028;-60
2024/01/12 04:50:31;;;;;;;48.88;35.80;;;2.30;99.90;;;;;;5091904;28;20024;-60
2024/01/12 04:52:57;;;;;;;47.15;34.83;;;2.30;99.90;;;;;;5093849;28;20028;-60
2024/01/12 04:55:23;;;;;;;53.40;37.60;;;2.30;99.90;;;;;;5096143;28;20032;-60
2024/01/12 04:57:49;;;;;;;51.65;37.08;;;2.30;99.90;;;;;;5094743;28;20110;-60
2024/01/12 05:00:15;;;;;;;55.47;37.47;;;2.30;99.90;;;;;;5096213;28;20032;-60
2024/01/12 05:02:41;;;;;;;52.83;38.67;;;2.20;99.90;;;;;;5096576;28;20047;-60
2024/01/12 05:05:10;;;;;;;50.78;36.83;;;2.30;99.90;;;;;;5096132;28;20482;-60
2024/01/12 05:07:35;;;;;;;50.03;37.28;;;2.60;99.90;;;;;;5096247;28;20020;-60
2024/01/12 05:10:03;;;;;;;48.30;34.72;;;2.80;99.90;;;;;;5096044;28;20547;-60
2024/01/12 05:12:29;;;;;;;45.20;31.88;;;3.00;99.90;;;;;;5096073;28;20024;-60
2024/01/12 05:14:54;;;;;;;45.08;32.10;;;3.30;99.90;;;;;;5095801;28;20051;-60
2024/01/12 05:17:20;;;;;;;46.60;33.72;;;3.30;99.90;;;;;;5096013;28;20039;-60
2024/01/12 05:19:45;;;;;;;49.03;36.92;;;3.40;99.90;;;;;;5095828;28;20028;-60
2024/01/12 05:22:11;;;;;;;49.63;36.47;;;3.30;99.90;;;;;;5095785;28;20036;-60
2024/01/12 05:24:37;;;;;;;46.13;34.65;;;3.20;99.90;;;;;;5095745;28;20401;-59
2024/01/12 05:27:03;;;;;;;44.30;31.35;;;3.00;99.90;;;;;;5095889;28;20028;-60
2024/01/12 05:29:28;;;;;;;46.58;32.83;;;3.00;99.90;;;;;;5095810;28;20028;-60
2024/01/12 05:31:54;;;;;;;55.58;40.47;;;2.80;99.90;;;;;;5095676;28;20024;-59
2024/01/12 05:34:20;;;;;;;64.88;45.88;;;2.80;99.90;;;;;;5095634;28;20020;-60
2024/01/12 05:36:46;;;;;;;51.65;36.47;;;2.70;99.90;;;;;;5095387;28;20034;-60
2024/01/12 05:39:11;;;;;;;58.72;43.22;;;2.60;99.90;;;;;;5095204;28;20032;-59
2024/01/12 05:41:37;;;;;;;49.22;35.42;;;2.60;99.90;;;;;;5094902;28;20024;-60
2024/01/12 05:44:04;;;;;;;52.35;36.17;;;2.60;99.90;;;;;;5094944;28;20016;-60
2024/01/12 05:46:30;;;;;;;55.13;36.97;;;2.60;99.90;;;;;;5095230;28;20044;-60
2024/01/12 05:48:56;;;;;;;68.10;47.00;;;2.50;99.90;;;;;;5095364;28;20037;-60
2024/01/12 05:51:21;;;;;;;56.08;39.72;;;2.50;99.90;;;;;;5094912;28;20093;-60
2024/01/12 05:53:47;;;;;;;53.88;37.90;;;2.50;99.90;;;;;;5095204;28;20024;-60
2024/01/12 05:56:12;;;;;;;55.63;36.78;;;2.50;99.90;;;;;;5094961;28;20039;-60
2024/01/12 05:58:39;;;;;;;55.55;37.95;;;2.50;99.90;;;;;;5095133;28;20371;-60
2024/01/12 06:01:05;;;;;;;54.17;38.47;;;2.50;99.90;;;;;;5095140;28;20085;-60
2024/01/12 06:03:30;;;;;;;56.25;40.22;;;2.50;99.90;;;;;;5094859;28;20024;-60
2024/01/12 06:05:57;;;;;;;49.25;35.22;;;2.40;99.90;;;;;;5094245;28;20107;-60
2024/01/12 06:08:22;;;;;;;48.17;34.42;;;2.50;99.90;;;;;;5094959;28;20020;-60
2024/01/12 06:10:50;;;;;;;50.88;34.20;;;2.50;99.90;;;;;;5090985;28;20036;-60
2024/01/12 06:13:16;;;;;;;47.33;34.40;;;2.50;99.90;;;;;;5087423;28;20288;-60
2024/01/12 06:15:42;;;;;;;50.22;33.38;;;2.50;99.90;;;;;;5084886;28;20028;-60
2024/01/12 06:18:07;;;;;;;49.45;33.67;;;2.50;99.90;;;;;;5074538;28;20077;-60
2024/01/12 06:20:33;;;;;;;49.65;35.30;;;2.40;99.90;;;;;;5073606;28;20031;-60
2024/01/12 06:22:59;;;;;;;48.45;35.55;;;2.40;99.90;;;;;;5074348;28;20028;-60
2024/01/12 06:25:24;;;;;;;51.33;35.83;;;2.40;99.90;;;;;;5083197;28;20031;-60
2024/01/12 06:27:50;;;;;;;50.28;33.65;;;2.40;99.90;;;;;;5079276;28;20495;-60
2024/01/12 06:30:17;;;;;;;50.55;34.65;;;2.40;99.90;;;;;;5092086;28;20028;-60
2024/01/12 06:32:43;;;;;;;49.22;34.47;;;2.40;99.90;;;;;;5080485;28;20021;-60
2024/01/12 06:35:10;;;;;;;47.42;34.08;;;2.40;99.90;;;;;;5073710;28;20063;-60
2024/01/12 06:37:36;;;;;;;50.95;34.47;;;2.40;99.90;;;;;;5073926;28;20064;-60
2024/01/12 06:40:02;;;;;;;50.70;35.10;;;2.40;99.90;;;;;;5072200;28;20017;-60
2024/01/12 06:42:28;;;;;;;53.17;38.08;;;2.40;99.90;;;;;;5091842;28;20031;-60
2024/01/12 06:44:54;;;;;;;52.03;36.15;;;2.40;99.90;;;;;;5090108;28;20020;-61
2024/01/12 06:47:20;;;;;;;51.40;36.35;;;2.50;99.90;;;;;;5077608;28;20045;-60
2024/01/12 06:49:47;;;;;;;53.15;35.42;;;2.40;99.90;;;;;;5093302;28;20039;-60
2024/01/12 06:52:13;;;;;;;52.42;36.08;;;2.40;99.90;;;;;;5093944;28;20024;-60
2024/01/12 06:54:43;;;;;;;52.47;36.70;;;2.40;99.90;;;;;;5093711;28;20039;-60
2024/01/12 06:57:09;;;;;;;50.03;36.05;;;2.40;99.90;;;;;;5094003;28;20119;-60
2024/01/12 06:59:34;;;;;;;52.70;36.72;;;2.40;99.90;;;;;;5093674;28;20103;-59
2024/01/12 07:02:00;;;;;;;52.95;36.42;;;2.50;99.90;;;;;;5093597;28;20035;-60
2024/01/12 07:04:25;;;;;;;51.53;33.75;;;2.50;99.90;;;;;;5094178;28;20016;-60
2024/01/12 07:06:52;;;;;;;53.83;35.65;;;2.50;99.90;;;;;;5093697;28;20039;-59
2024/01/12 07:09:18;;;;;;;55.22;35.90;;;2.50;99.90;;;;;;5093643;28;20020;-60
2024/01/12 07:11:45;;;;;;;52.55;35.75;;;2.50;99.90;;;;;;5093754;28;20040;-60
2024/01/12 07:14:11;;;;;;;56.28;37.35;;;2.50;99.90;;;;;;5093913;28;20027;-59
2024/01/12 07:16:37;;;;;;;56.67;38.25;;;2.40;99.90;;;;;;5093233;28;20425;-59
2024/01/12 07:19:03;;;;;;;58.97;38.53;;;2.50;99.90;;;;;;5093528;28;20027;-63
2024/01/12 07:21:29;;;;;;;56.33;37.15;;;2.50;99.90;;;;;;5093353;28;20390;-62
2024/01/12 07:23:55;;;;;;;59.25;39.03;;;2.50;99.90;;;;;;5093084;28;20371;-63
2024/01/12 07:26:21;;;;;;;55.08;37.17;;;2.50;99.90;;;;;;5093584;28;20023;-62
2024/01/12 07:28:46;;;;;;;63.35;38.92;;;2.70;99.90;;;;;;5091455;28;20078;-63
2024/01/12 07:31:12;;;;;;;54.80;36.28;;;3.00;99.90;;;;;;5092095;28;20035;-62
2024/01/12 07:33:38;;;;;;;51.05;34.67;;;3.20;99.90;;;;;;5093353;28;20124;-62
2024/01/12 07:36:03;;;;;;;52.35;34.50;;;3.40;99.90;;;;;;5093111;28;20063;-63
2024/01/12 07:38:29;;;;;;;50.03;33.50;;;3.50;99.90;;;;;;5092624;28;20102;-63
2024/01/12 07:40:55;;;;;;;44.85;31.25;;;3.60;99.90;;;;;;5092635;28;20035;-63
2024/01/12 07:43:20;;;;;;;51.72;32.13;;;3.60;99.90;;;;;;5093308;28;20093;-63
2024/01/12 07:45:47;;;;;;;50.95;33.03;;;3.50;99.90;;;;;;5088890;28;20463;-62
2024/01/12 07:48:12;;;;;;;51.47;33.30;;;3.20;99.90;;;;;;5081415;28;20111;-63
2024/01/12 07:50:38;;;;;;;48.47;32.22;;;3.10;99.90;;;;;;5072422;28;20459;-63
2024/01/12 07:53:04;;;;;;;51.17;33.17;;;3.10;99.90;;;;;;5072132;28;20024;-63
2024/01/12 07:55:30;;;;;;;48.72;33.67;;;3.00;99.90;;;;;;5072563;28;20094;-63
2024/01/12 07:57:55;;;;;;;48.67;33.55;;;2.90;99.90;;;;;;5072571;28;20028;-63
2024/01/12 08:00:21;;;;;;;48.15;32.72;;;2.90;99.90;;;;;;5072263;28;20024;-63
2024/01/12 08:02:47;;;;;;;53.85;37.30;;;2.80;99.90;;;;;;5072021;28;20036;-63
2024/01/12 08:05:12;;;;;;;59.42;42.15;;;2.80;99.90;;;;;;5072628;28;20029;-63
2024/01/12 08:07:39;;;;;;;72.97;51.60;;;2.70;99.90;;;;;;5071921;28;20100;-63
2024/01/12 08:10:05;;;;;;;79.47;53.15;;;2.70;99.90;;;;;;5072076;28;20454;-63
2024/01/12 08:12:31;;;;;;;75.38;48.95;;;2.70;99.90;;;;;;5072048;28;20044;-62
2024/01/12 08:14:56;;;;;;;55.90;38.13;;;2.70;99.90;;;;;;5072106;28;20028;-63
2024/01/12 08:17:22;;;;;;;51.80;35.50;;;2.70;99.90;;;;;;5072200;28;20402;-62
2024/01/12 08:19:48;;;;;;;50.25;34.55;;;2.70;99.90;;;;;;5072049;28;20029;-63
2024/01/12 08:22:14;;;;;;;56.28;36.28;;;2.70;99.90;;;;;;5071803;28;20020;-63
2024/01/12 08:24:40;;;;;;;53.72;34.45;;;2.60;99.90;;;;;;5088959;28;20027;-63
2024/01/12 08:27:06;;;;;;;60.75;38.72;;;2.60;99.90;;;;;;5091836;28;20054;-63
2024/01/12 08:29:31;;;;;;;66.82;43.85;;;2.60;99.90;;;;;;5090914;28;20129;-63
2024/01/12 08:31:58;;;;;;;65.40;43.80;;;2.60;99.90;;;;;;5092624;28;20024;-63
2024/01/12 08:34:24;;;;;;;70.60;45.13;;;2.60;99.90;;;;;;5092276;28;20024;-63
2024/01/12 08:36:50;;;;;;;69.80;44.15;;;2.60;99.90;;;;;;5091812;28;20028;-62
2024/01/12 08:39:17;;;;;;;76.18;48.38;;;2.60;99.90;;;;;;5092426;28;20035;-63
2024/01/12 08:41:43;;;;;;;74.38;46.50;;;2.60;99.90;;;;;;5091972;28;20038;-63
2024/01/12 08:44:08;;;;;;;72.88;45.28;;;2.60;99.90;;;;;;5092362;28;20546;-63
2024/01/12 08:46:34;;;;;;;62.67;40.22;;;2.70;99.90;;;;;;5088508;28;20083;-63
2024/01/12 08:49:00;;;;;;;61.55;38.72;;;2.70;99.90;;;;;;5092134;28;20024;-63
2024/01/12 08:51:26;;;;;;;63.92;42.30;;;2.70;99.90;;;;;;5091732;28;20054;-63
2024/01/12 08:53:52;;;;;;;65.65;41.83;;;2.70;99.90;;;;;;5092066;28;20562;-63
2024/01/12 08:56:17;;;;;;;63.80;39.10;;;2.70;99.90;;;;;;5092368;28;20335;-63
2024/01/12 08:58:43;;;;;;;66.93;39.25;;;2.70;99.90;;;;;;5092061;28;20402;-63
2024/01/12 09:01:09;;;;;;;64.50;41.35;;;2.70;99.90;;;;;;5090698;28;20433;-63
2024/01/12 09:03:34;;;;;;;68.50;41.00;;;2.70;99.90;;;;;;5092422;28;20032;-63
2024/01/12 09:06:00;;;;;;;63.22;39.75;;;2.80;99.90;;;;;;5091274;28;20020;-63
2024/01/12 09:08:26;;;;;;;65.30;38.28;;;2.80;99.90;;;;;;5087408;28;20475;-62
2024/01/12 09:10:51;;;;;;;65.57;39.10;;;2.70;99.90;;;;;;5071982;28;20403;-63
2024/01/12 09:13:17;;;;;;;70.75;42.33;;;2.70;99.90;;;;;;5071801;28;20020;-63
2024/01/12 09:15:43;;;;;;;66.85;42.85;;;2.80;99.90;;;;;;5071370;28;20275;-63
2024/01/12 09:18:08;;;;;;;73.43;43.15;;;2.80;99.90;;;;;;5071413;28;20054;-63
2024/01/12 09:20:34;;;;;;;61.80;40.85;;;2.80;99.90;;;;;;5071283;28;20021;-63
2024/01/12 09:23:00;;;;;;;70.53;43.00;;;2.80;99.90;;;;;;5071580;28;20103;-62
2024/01/12 09:25:26;;;;;;;77.65;46.13;;;2.90;99.90;;;;;;5071684;28;20070;-63
2024/01/12 09:27:52;;;;;;;77.00;46.15;;;2.90;99.90;;;;;;5071454;28;20028;-62
2024/01/12 09:30:19;;;;;;;72.20;44.00;;;2.90;99.90;;;;;;5071677;28;20406;-62
2024/01/12 09:32:44;;;;;;;74.20;44.80;;;3.00;99.90;;;;;;5071508;28;20541;-62
2024/01/12 09:35:10;;;;;;;73.25;44.70;;;3.00;99.90;;;;;;5071402;28;20188;-62
2024/01/12 09:37:36;;;;;;;72.80;42.05;;;3.00;99.90;;;;;;5071563;28;20060;-62
2024/01/12 09:40:02;;;;;;;69.70;42.55;;;3.00;99.90;;;;;;5074701;28;20421;-62
2024/01/12 09:42:31;;;;;;;69.45;42.17;;;3.00;99.90;;;;;;5091631;28;20463;-62
2024/01/12 09:44:59;;;;;;;71.75;41.78;;;3.00;99.90;;;;;;5095793;28;20351;-62
2024/01/12 09:47:26;;;;;;;68.13;40.83;;;3.00;99.90;;;;;;5096153;28;20046;-62
2024/01/12 09:49:53;;;;;;;77.68;45.25;;;3.10;99.90;;;;;;5095299;28;20028;-62
2024/01/12 09:52:19;;;;;;;75.20;43.67;;;3.40;99.90;;;;;;5095251;28;20028;-62
2024/01/12 09:54:45;;;;;;;70.57;43.50;;;3.60;99.90;;;;;;5095154;28;20024;-62
2024/01/12 09:57:15;;;;;;;70.20;41.75;;;3.80;99.90;;;;;;5095239;28;20051;-63
2024/01/12 09:59:42;;;;;;;62.08;38.08;;;4.00;99.90;;;;;;5095069;28;20115;-62
2024/01/12 10:02:18;;;;;;;59.30;39.15;;;4.00;99.90;;;;;;5095371;28;20024;-62
2024/01/12 10:04:44;;;;;;;61.45;38.03;;;4.20;99.90;;;;;;5094870;28;20051;-62
2024/01/12 10:07:09;;;;;;;58.22;35.88;;;4.20;99.90;;;;;;5095068;28;20028;-62
2024/01/12 10:09:35;;;;;;;54.17;35.17;;;4.10;99.90;;;;;;5095331;28;20032;-63
2024/01/12 10:12:01;;;;;;;54.33;35.17;;;4.00;99.90;;;;;;5094927;28;20394;-62
2024/01/12 10:14:26;;;;;;;57.42;36.00;;;3.80;99.90;;;;;;5094916;28;20382;-63
2024/01/12 10:16:54;;;;;;;56.70;35.90;;;3.70;99.90;;;;;;5094275;28;20047;-62
2024/01/12 10:19:19;;;;;;;60.97;36.10;;;3.60;99.90;;;;;;5094745;28;20029;-63
2024/01/12 10:21:46;;;;;;;63.47;38.72;;;3.60;99.90;;;;;;5093489;28;20030;-63
2024/01/12 10:24:17;;;;;;;57.67;36.70;;;3.60;99.90;;;;;;5094514;28;20032;-62
2024/01/12 10:26:43;;;;;;;60.63;37.38;;;3.60;99.90;;;;;;5094580;28;20036;-62
2024/01/12 10:29:10;;;;;;;63.22;38.65;;;3.50;99.90;;;;;;5094356;28;20016;-62
2024/01/12 10:31:41;;;;;;;60.45;39.20;;;3.50;99.90;;;;;;5094607;28;20056;-63
2024/01/12 10:34:11;;;;;;;62.95;39.55;;;3.60;99.90;;;;;;5094557;28;20070;-63
2024/01/12 10:36:37;;;;;;;63.30;40.55;;;3.60;99.90;;;;;;5094414;28;20406;-62
2024/01/12 10:39:03;;;;;;;65.80;43.13;;;3.60;99.90;;;;;;5094348;28;20032;-63
2024/01/12 10:41:33;;;;;;;68.57;42.72;;;3.70;99.90;;;;;;5094475;28;20024;-63
2024/01/12 10:44:03;;;;;;;71.45;41.67;;;3.70;99.90;;;;;;5094389;28;20547;-63
2024/01/12 10:46:45;;;;;;;65.55;40.40;;;3.70;99.90;;;;;;5093646;28;20075;-63
2024/01/12 10:49:19;;;;;;;59.60;37.33;;;3.80;99.90;;;;;;5094238;28;20024;-63
2024/01/12 10:52:28;;;;;;;62.60;40.95;;;3.80;99.90;;;;;;5094101;28;20019;-62
2024/01/12 10:55:03;;;;;;;62.65;38.17;;;3.80;99.90;;;;;;5051555;28;20033;-62
2024/01/12 10:57:30;;;;;;;60.95;34.97;;;3.90;99.90;;;;;;5051333;28;20049;-63
2024/01/12 10:59:57;;;;;;;60.38;35.78;;;3.80;99.90;;;;;;5050802;28;20029;-63
2024/01/12 11:02:24;;;;;;;59.88;36.83;;;3.90;99.90;;;;;;5051516;28;20041;-63
2024/01/12 11:04:50;;;;;;;52.70;32.92;;;3.80;99.90;;;;;;5050862;28;20025;-63
2024/01/12 11:07:17;;;;;;;52.05;32.90;;;3.80;99.90;;;;;;5051977;28;20112;-62
2024/01/12 11:09:43;;;;;;;52.30;31.58;;;3.80;99.90;;;;;;5051270;28;20037;-63
2024/01/12 11:12:12;;;;;;;48.40;29.48;;;3.90;99.90;;;;;;5051149;28;20025;-62
2024/01/12 11:14:39;;;;;;;45.80;28.90;;;4.00;99.90;;;;;;5051719;28;20029;-63
2024/01/12 11:17:06;;;;;;;47.08;28.38;;;4.00;99.90;;;;;;5051060;28;20052;-62
2024/01/12 11:19:32;;;;;;;46.28;29.08;;;4.00;99.90;;;;;;5051097;28;20032;-63
2024/01/12 11:22:07;;;;;;;52.17;30.88;;;4.10;99.90;;;;;;5051245;28;20040;-63
2024/01/12 11:24:34;;;;;;;42.28;29.73;;;4.10;99.90;;;;;;5051020;28;20513;-62
2024/01/12 11:27:00;;;;;;;44.80;28.17;;;4.10;99.90;;;;;;5051150;28;20040;-63
2024/01/12 11:29:30;;;;;;;41.42;27.38;;;4.10;99.90;;;;;;5081236;28;20036;-62
2024/01/12 11:32:01;;;;;;;44.65;28.38;;;4.10;99.90;;;;;;5091741;28;20043;-63
2024/01/12 11:34:31;;;;;;;42.58;28.52;;;4.20;99.90;;;;;;5088051;28;20390;-62
2024/01/12 11:37:00;;;;;;;46.45;28.90;;;4.10;99.90;;;;;;5092998;28;20032;-62
2024/01/12 11:39:36;;;;;;;46.33;30.17;;;4.10;99.90;;;;;;5093216;28;20103;-62
2024/01/12 11:42:03;;;;;;;44.50;28.05;;;4.10;99.90;;;;;;5093328;28;20024;-62
2024/01/12 11:44:31;;;;;;;46.42;29.13;;;4.10;99.90;;;;;;5092983;28;20030;-63
2024/01/12 11:46:58;;;;;;;43.22;28.40;;;4.10;99.90;;;;;;5093243;28;20051;-62
2024/01/12 11:49:24;;;;;;;44.53;28.70;;;4.20;99.90;;;;;;5092997;28;20482;-62
2024/01/12 11:51:50;;;;;;;43.17;28.08;;;4.20;99.90;;;;;;5093187;28;20038;-62
2024/01/12 11:54:15;;;;;;;42.25;27.83;;;4.20;99.90;;;;;;5092724;28;20020;-62
2024/01/12 11:56:42;;;;;;;42.38;28.35;;;4.20;99.90;;;;;;5093159;28;20067;-62
2024/01/12 11:59:08;;;;;;;47.38;28.40;;;4.20;99.90;;;;;;5092669;28;20031;-62
2024/01/12 12:01:33;;;;;;;47.42;28.75;;;4.30;99.90;;;;;;5092254;28;20028;-63
2024/01/12 12:03:59;;;;;;;44.38;29.42;;;4.30;99.90;;;;;;5092524;28;20020;-62
2024/01/12 12:06:25;;;;;;;53.40;32.05;;;4.30;99.90;;;;;;5092697;28;20020;-63
2024/01/12 12:08:55;;;;;;;52.72;33.72;;;4.30;99.90;;;;;;5092627;28;20023;-63
2024/01/12 12:11:21;;;;;;;56.13;38.33;;;4.30;99.90;;;;;;5092504;28;20540;-62
2024/01/12 12:13:46;;;;;;;57.72;36.58;;;4.30;99.90;;;;;;5092691;28;20032;-62
2024/01/12 12:16:13;;;;;;;49.15;32.50;;;4.40;99.90;;;;;;5092532;28;20567;-62
2024/01/12 12:18:38;;;;;;;69.90;42.38;;;4.70;99.90;;;;;;5092974;28;20032;-62
2024/01/12 12:21:05;;;;;;;57.40;36.45;;;4.90;99.90;;;;;;5092458;28;20501;-63
2024/01/12 12:23:31;;;;;;;50.35;32.85;;;5.00;99.90;;;;;;5092329;28;20080;-62
2024/01/12 12:25:59;;;;;;;46.78;31.35;;;5.00;99.90;;;;;;5092462;28;20024;-62
2024/01/12 12:28:24;;;;;;;47.92;31.98;;;5.10;99.90;;;;;;5092219;28;20545;-63
2024/01/12 12:30:55;;;;;;;50.17;32.65;;;5.20;99.90;;;;;;5090979;28;20091;-62